sensor_id;sensor_type;location;lat;lon;timestamp;P1;durP1;ratioP1;P2;durP2;ratioP2
68214;SDS011;55036;52.138;5.236;2023-08-07T00:02:00;8.32;;;2.88;;
68214;SDS011;55036;52.138;5.236;2023-08-07T00:04:27;9.48;;;2.20;;
68214;SDS011;55036;52.138;5.236;2023-08-07T00:06:54;9.48;;;2.42;;
68214;SDS011;55036;52.138;5.236;2023-08-07T00:09:21;10.75;;;2.83;;
68214;SDS011;55036;52.138;5.236;2023-08-07T00:11:48;10.85;;;2.92;;
68214;SDS011;55036;52.138;5.236;2023-08-07T00:14:15;12.48;;;2.70;;
68214;SDS011;55036;52.138;5.236;2023-08-07T00:16:41;10.95;;;2.83;;
68214;SDS011;55036;52.138;5.236;2023-08-07T00:19:08;10.20;;;2.95;;
68214;SDS011;55036;52.138;5.236;2023-08-07T00:21:35;11.73;;;2.50;;
68214;SDS011;55036;52.138;5.236;2023-08-07T00:24:02;11.43;;;2.80;;
68214;SDS011;55036;52.138;5.236;2023-08-07T00:26:29;13.45;;;3.28;;
68214;SDS011;55036;52.138;5.236;2023-08-07T00:28:58;9.43;;;2.40;;
68214;SDS011;55036;52.138;5.236;2023-08-07T00:31:25;11.23;;;2.40;;
68214;SDS011;55036;52.138;5.236;2023-08-07T00:33:52;7.68;;;2.50;;
68214;SDS011;55036;52.138;5.236;2023-08-07T00:36:20;10.48;;;3.10;;
68214;SDS011;55036;52.138;5.236;2023-08-07T00:38:47;12.32;;;3.13;;
68214;SDS011;55036;52.138;5.236;2023-08-07T00:41:16;14.45;;;3.17;;
68214;SDS011;55036;52.138;5.236;2023-08-07T01:20:58;10.93;;;2.33;;
68214;SDS011;55036;52.138;5.236;2023-08-07T01:23:24;12.85;;;2.53;;
68214;SDS011;55036;52.138;5.236;2023-08-07T01:25:51;7.13;;;2.15;;
68214;SDS011;55036;52.138;5.236;2023-08-07T01:28:25;7.63;;;2.40;;
68214;SDS011;55036;52.138;5.236;2023-08-07T01:31:03;8.07;;;2.13;;
68214;SDS011;55036;52.138;5.236;2023-08-07T01:33:40;9.68;;;2.30;;
68214;SDS011;55036;52.138;5.236;2023-08-07T01:36:14;11.10;;;2.42;;
68214;SDS011;55036;52.138;5.236;2023-08-07T01:38:44;11.45;;;2.30;;
68214;SDS011;55036;52.138;5.236;2023-08-07T01:41:11;10.23;;;2.22;;
68214;SDS011;55036;52.138;5.236;2023-08-07T01:43:38;10.98;;;2.33;;
68214;SDS011;55036;52.138;5.236;2023-08-07T01:46:06;6.30;;;2.47;;
68214;SDS011;55036;52.138;5.236;2023-08-07T01:48:33;14.52;;;3.03;;
68214;SDS011;55036;52.138;5.236;2023-08-07T01:50:59;10.38;;;3.00;;
68214;SDS011;55036;52.138;5.236;2023-08-07T01:53:26;10.00;;;2.15;;
68214;SDS011;55036;52.138;5.236;2023-08-07T01:55:53;11.65;;;2.85;;
68214;SDS011;55036;52.138;5.236;2023-08-07T01:58:20;6.97;;;2.05;;
68214;SDS011;55036;52.138;5.236;2023-08-07T02:00:46;11.02;;;1.95;;
68214;SDS011;55036;52.138;5.236;2023-08-07T02:03:13;7.35;;;2.35;;
68214;SDS011;55036;52.138;5.236;2023-08-07T02:05:40;9.50;;;2.10;;
68214;SDS011;55036;52.138;5.236;2023-08-07T02:08:06;6.68;;;1.85;;
68214;SDS011;55036;52.138;5.236;2023-08-07T02:10:33;12.23;;;2.55;;
68214;SDS011;55036;52.138;5.236;2023-08-07T02:13:00;9.13;;;2.55;;
68214;SDS011;55036;52.138;5.236;2023-08-07T02:15:27;9.55;;;2.10;;
68214;SDS011;55036;52.138;5.236;2023-08-07T02:17:54;9.43;;;2.30;;
68214;SDS011;55036;52.138;5.236;2023-08-07T02:20:21;9.50;;;2.08;;
68214;SDS011;55036;52.138;5.236;2023-08-07T02:22:47;10.10;;;2.15;;
68214;SDS011;55036;52.138;5.236;2023-08-07T02:25:15;8.68;;;2.15;;
68214;SDS011;55036;52.138;5.236;2023-08-07T02:27:42;11.50;;;2.35;;
68214;SDS011;55036;52.138;5.236;2023-08-07T02:30:08;13.07;;;2.03;;
68214;SDS011;55036;52.138;5.236;2023-08-07T02:32:35;9.90;;;2.25;;
68214;SDS011;55036;52.138;5.236;2023-08-07T02:35:02;8.95;;;2.30;;
68214;SDS011;55036;52.138;5.236;2023-08-07T02:37:29;12.82;;;2.67;;
68214;SDS011;55036;52.138;5.236;2023-08-07T02:39:56;13.68;;;3.00;;
68214;SDS011;55036;52.138;5.236;2023-08-07T02:42:23;10.90;;;2.65;;
68214;SDS011;55036;52.138;5.236;2023-08-07T02:44:50;11.30;;;2.35;;
68214;SDS011;55036;52.138;5.236;2023-08-07T02:47:16;12.25;;;3.03;;
68214;SDS011;55036;52.138;5.236;2023-08-07T02:49:43;11.43;;;2.28;;
68214;SDS011;55036;52.138;5.236;2023-08-07T02:52:10;16.00;;;2.58;;
68214;SDS011;55036;52.138;5.236;2023-08-07T02:54:36;7.80;;;2.42;;
68214;SDS011;55036;52.138;5.236;2023-08-07T02:57:03;14.02;;;2.83;;
68214;SDS011;55036;52.138;5.236;2023-08-07T02:59:30;15.73;;;3.13;;
68214;SDS011;55036;52.138;5.236;2023-08-07T03:01:57;16.88;;;3.08;;
68214;SDS011;55036;52.138;5.236;2023-08-07T03:04:23;13.57;;;2.55;;
68214;SDS011;55036;52.138;5.236;2023-08-07T03:06:50;10.73;;;2.30;;
68214;SDS011;55036;52.138;5.236;2023-08-07T03:09:17;13.23;;;2.75;;
68214;SDS011;55036;52.138;5.236;2023-08-07T03:11:44;10.10;;;1.95;;
68214;SDS011;55036;52.138;5.236;2023-08-07T03:14:11;8.15;;;2.47;;
68214;SDS011;55036;52.138;5.236;2023-08-07T03:16:37;7.00;;;2.15;;
68214;SDS011;55036;52.138;5.236;2023-08-07T03:19:04;9.35;;;2.25;;
68214;SDS011;55036;52.138;5.236;2023-08-07T03:21:31;8.93;;;3.10;;
68214;SDS011;55036;52.138;5.236;2023-08-07T03:23:58;11.75;;;2.75;;
68214;SDS011;55036;52.138;5.236;2023-08-07T03:26:24;9.02;;;2.10;;
68214;SDS011;55036;52.138;5.236;2023-08-07T03:28:51;6.60;;;1.70;;
68214;SDS011;55036;52.138;5.236;2023-08-07T03:31:18;7.30;;;1.83;;
68214;SDS011;55036;52.138;5.236;2023-08-07T03:33:45;10.20;;;2.38;;
68214;SDS011;55036;52.138;5.236;2023-08-07T03:36:12;7.70;;;2.20;;
68214;SDS011;55036;52.138;5.236;2023-08-07T03:38:38;7.38;;;1.52;;
68214;SDS011;55036;52.138;5.236;2023-08-07T03:41:05;11.40;;;2.45;;
68214;SDS011;55036;52.138;5.236;2023-08-07T03:43:32;13.32;;;2.45;;
68214;SDS011;55036;52.138;5.236;2023-08-07T03:45:59;5.70;;;1.70;;
68214;SDS011;55036;52.138;5.236;2023-08-07T03:48:28;7.32;;;2.35;;
68214;SDS011;55036;52.138;5.236;2023-08-07T03:51:05;9.02;;;2.45;;
68214;SDS011;55036;52.138;5.236;2023-08-07T03:53:34;7.00;;;2.60;;
68214;SDS011;55036;52.138;5.236;2023-08-07T03:56:01;9.43;;;2.45;;
68214;SDS011;55036;52.138;5.236;2023-08-07T03:58:28;9.18;;;2.63;;
68214;SDS011;55036;52.138;5.236;2023-08-07T04:00:55;10.35;;;3.20;;
68214;SDS011;55036;52.138;5.236;2023-08-07T04:03:22;11.75;;;2.78;;
68214;SDS011;55036;52.138;5.236;2023-08-07T04:05:52;10.20;;;2.45;;
68214;SDS011;55036;52.138;5.236;2023-08-07T04:08:20;13.10;;;2.45;;
68214;SDS011;55036;52.138;5.236;2023-08-07T04:10:57;9.98;;;2.55;;
68214;SDS011;55036;52.138;5.236;2023-08-07T04:13:25;10.88;;;2.70;;
68214;SDS011;55036;52.138;5.236;2023-08-07T04:15:53;9.68;;;3.45;;
68214;SDS011;55036;52.138;5.236;2023-08-07T04:18:20;8.30;;;2.15;;
68214;SDS011;55036;52.138;5.236;2023-08-07T04:20:50;11.20;;;2.55;;
68214;SDS011;55036;52.138;5.236;2023-08-07T04:23:21;9.52;;;2.55;;
68214;SDS011;55036;52.138;5.236;2023-08-07T04:25:48;8.15;;;2.22;;
68214;SDS011;55036;52.138;5.236;2023-08-07T04:28:16;13.63;;;3.25;;
68214;SDS011;55036;52.138;5.236;2023-08-07T04:30:43;11.57;;;2.63;;
68214;SDS011;55036;52.138;5.236;2023-08-07T04:33:10;9.93;;;2.90;;
68214;SDS011;55036;52.138;5.236;2023-08-07T04:35:37;9.05;;;2.83;;
68214;SDS011;55036;52.138;5.236;2023-08-07T04:38:04;10.55;;;2.67;;
68214;SDS011;55036;52.138;5.236;2023-08-07T04:40:31;12.77;;;3.05;;
68214;SDS011;55036;52.138;5.236;2023-08-07T04:42:57;9.10;;;2.63;;
68214;SDS011;55036;52.138;5.236;2023-08-07T04:45:24;14.85;;;3.33;;
68214;SDS011;55036;52.138;5.236;2023-08-07T04:47:51;11.00;;;3.17;;
68214;SDS011;55036;52.138;5.236;2023-08-07T04:50:18;15.90;;;2.58;;
68214;SDS011;55036;52.138;5.236;2023-08-07T04:52:45;11.25;;;2.97;;
68214;SDS011;55036;52.138;5.236;2023-08-07T04:55:12;13.52;;;2.80;;
68214;SDS011;55036;52.138;5.236;2023-08-07T04:57:38;7.82;;;2.47;;
68214;SDS011;55036;52.138;5.236;2023-08-07T05:00:05;7.53;;;2.10;;
68214;SDS011;55036;52.138;5.236;2023-08-07T05:02:32;11.18;;;2.47;;
68214;SDS011;55036;52.138;5.236;2023-08-07T05:04:59;13.00;;;2.75;;
68214;SDS011;55036;52.138;5.236;2023-08-07T05:07:26;10.73;;;2.55;;
68214;SDS011;55036;52.138;5.236;2023-08-07T05:09:53;10.40;;;2.80;;
68214;SDS011;55036;52.138;5.236;2023-08-07T05:12:19;14.40;;;2.72;;
68214;SDS011;55036;52.138;5.236;2023-08-07T05:14:46;10.80;;;2.30;;
68214;SDS011;55036;52.138;5.236;2023-08-07T05:17:13;9.35;;;2.63;;
68214;SDS011;55036;52.138;5.236;2023-08-07T05:19:40;14.77;;;3.08;;
68214;SDS011;55036;52.138;5.236;2023-08-07T05:22:06;11.68;;;2.40;;
68214;SDS011;55036;52.138;5.236;2023-08-07T05:24:33;10.07;;;2.75;;
68214;SDS011;55036;52.138;5.236;2023-08-07T05:27:06;12.80;;;2.60;;
68214;SDS011;55036;52.138;5.236;2023-08-07T05:29:34;13.38;;;3.00;;
68214;SDS011;55036;52.138;5.236;2023-08-07T05:32:09;16.15;;;3.40;;
68214;SDS011;55036;52.138;5.236;2023-08-07T05:34:37;7.70;;;2.50;;
68214;SDS011;55036;52.138;5.236;2023-08-07T05:37:05;9.95;;;2.45;;
68214;SDS011;55036;52.138;5.236;2023-08-07T05:39:33;7.38;;;1.98;;
68214;SDS011;55036;52.138;5.236;2023-08-07T05:42:00;3.95;;;1.60;;
68214;SDS011;55036;52.138;5.236;2023-08-07T05:44:28;7.93;;;2.03;;
68214;SDS011;55036;52.138;5.236;2023-08-07T05:46:55;5.18;;;1.80;;
68214;SDS011;55036;52.138;5.236;2023-08-07T05:49:22;6.30;;;2.10;;
68214;SDS011;55036;52.138;5.236;2023-08-07T05:51:52;11.50;;;2.47;;
68214;SDS011;55036;52.138;5.236;2023-08-07T05:54:20;12.38;;;3.38;;
68214;SDS011;55036;52.138;5.236;2023-08-07T05:56:46;13.63;;;2.88;;
68214;SDS011;55036;52.138;5.236;2023-08-07T05:59:13;8.98;;;2.53;;
68214;SDS011;55036;52.138;5.236;2023-08-07T06:01:41;9.05;;;2.65;;
68214;SDS011;55036;52.138;5.236;2023-08-07T06:04:08;11.40;;;2.70;;
68214;SDS011;55036;52.138;5.236;2023-08-07T06:06:35;13.77;;;3.05;;
68214;SDS011;55036;52.138;5.236;2023-08-07T06:09:02;11.40;;;2.78;;
68214;SDS011;55036;52.138;5.236;2023-08-07T06:11:32;12.45;;;3.13;;
68214;SDS011;55036;52.138;5.236;2023-08-07T06:13:59;18.38;;;3.40;;
68214;SDS011;55036;52.138;5.236;2023-08-07T06:16:27;9.95;;;2.85;;
68214;SDS011;55036;52.138;5.236;2023-08-07T06:18:54;12.40;;;3.13;;
68214;SDS011;55036;52.138;5.236;2023-08-07T06:21:21;8.95;;;3.20;;
68214;SDS011;55036;52.138;5.236;2023-08-07T06:23:47;11.30;;;2.60;;
68214;SDS011;55036;52.138;5.236;2023-08-07T06:26:14;9.32;;;3.03;;
68214;SDS011;55036;52.138;5.236;2023-08-07T06:28:41;8.18;;;2.65;;
68214;SDS011;55036;52.138;5.236;2023-08-07T06:31:10;11.85;;;3.25;;
68214;SDS011;55036;52.138;5.236;2023-08-07T06:33:38;13.00;;;3.55;;
68214;SDS011;55036;52.138;5.236;2023-08-07T06:36:06;16.70;;;3.28;;
68214;SDS011;55036;52.138;5.236;2023-08-07T06:38:33;10.00;;;3.08;;
68214;SDS011;55036;52.138;5.236;2023-08-07T06:41:00;14.13;;;3.47;;
68214;SDS011;55036;52.138;5.236;2023-08-07T06:43:27;13.68;;;3.58;;
68214;SDS011;55036;52.138;5.236;2023-08-07T06:45:55;14.13;;;3.55;;
68214;SDS011;55036;52.138;5.236;2023-08-07T06:48:23;12.27;;;3.20;;
68214;SDS011;55036;52.138;5.236;2023-08-07T06:50:50;15.38;;;3.58;;
68214;SDS011;55036;52.138;5.236;2023-08-07T06:53:17;12.65;;;3.97;;
68214;SDS011;55036;52.138;5.236;2023-08-07T06:55:45;14.85;;;3.92;;
68214;SDS011;55036;52.138;5.236;2023-08-07T06:58:12;20.40;;;4.00;;
68214;SDS011;55036;52.138;5.236;2023-08-07T07:00:39;11.10;;;3.47;;
68214;SDS011;55036;52.138;5.236;2023-08-07T07:03:05;11.13;;;3.90;;
68214;SDS011;55036;52.138;5.236;2023-08-07T07:05:34;12.05;;;3.90;;
68214;SDS011;55036;52.138;5.236;2023-08-07T07:08:00;19.33;;;3.92;;
68214;SDS011;55036;52.138;5.236;2023-08-07T07:10:27;16.45;;;3.78;;
68214;SDS011;55036;52.138;5.236;2023-08-07T07:12:54;9.90;;;3.20;;
68214;SDS011;55036;52.138;5.236;2023-08-07T07:15:21;9.05;;;3.20;;
68214;SDS011;55036;52.138;5.236;2023-08-07T07:17:48;9.80;;;3.00;;
68214;SDS011;55036;52.138;5.236;2023-08-07T07:20:15;10.70;;;3.00;;
68214;SDS011;55036;52.138;5.236;2023-08-07T07:22:41;9.88;;;3.63;;
68214;SDS011;55036;52.138;5.236;2023-08-07T07:25:08;16.13;;;3.60;;
68214;SDS011;55036;52.138;5.236;2023-08-07T07:27:36;10.30;;;3.65;;
68214;SDS011;55036;52.138;5.236;2023-08-07T07:30:03;13.48;;;2.85;;
68214;SDS011;55036;52.138;5.236;2023-08-07T07:32:30;10.73;;;3.40;;
68214;SDS011;55036;52.138;5.236;2023-08-07T07:34:57;13.35;;;3.55;;
68214;SDS011;55036;52.138;5.236;2023-08-07T07:37:24;14.00;;;3.00;;
68214;SDS011;55036;52.138;5.236;2023-08-07T07:39:50;14.90;;;3.90;;
68214;SDS011;55036;52.138;5.236;2023-08-07T07:42:17;15.68;;;4.15;;
68214;SDS011;55036;52.138;5.236;2023-08-07T07:44:44;17.52;;;4.28;;
68214;SDS011;55036;52.138;5.236;2023-08-07T07:47:11;13.35;;;3.40;;
68214;SDS011;55036;52.138;5.236;2023-08-07T07:49:39;8.25;;;3.28;;
68214;SDS011;55036;52.138;5.236;2023-08-07T07:52:11;11.13;;;3.20;;
68214;SDS011;55036;52.138;5.236;2023-08-07T07:54:38;12.48;;;3.70;;
68214;SDS011;55036;52.138;5.236;2023-08-07T07:57:05;8.60;;;2.95;;
68214;SDS011;55036;52.138;5.236;2023-08-07T07:59:32;10.13;;;3.97;;
68214;SDS011;55036;52.138;5.236;2023-08-07T08:01:58;15.07;;;3.83;;
68214;SDS011;55036;52.138;5.236;2023-08-07T08:04:25;9.68;;;2.85;;
68214;SDS011;55036;52.138;5.236;2023-08-07T08:06:52;14.60;;;3.50;;
68214;SDS011;55036;52.138;5.236;2023-08-07T08:09:19;10.60;;;3.20;;
68214;SDS011;55036;52.138;5.236;2023-08-07T08:11:46;9.88;;;2.85;;
68214;SDS011;55036;52.138;5.236;2023-08-07T08:14:13;14.73;;;3.65;;
68214;SDS011;55036;52.138;5.236;2023-08-07T08:16:39;13.07;;;3.03;;
68214;SDS011;55036;52.138;5.236;2023-08-07T08:19:06;9.82;;;2.88;;
68214;SDS011;55036;52.138;5.236;2023-08-07T08:21:35;12.27;;;3.45;;
68214;SDS011;55036;52.138;5.236;2023-08-07T08:24:02;10.50;;;3.15;;
68214;SDS011;55036;52.138;5.236;2023-08-07T08:26:29;11.95;;;3.75;;
68214;SDS011;55036;52.138;5.236;2023-08-07T08:28:56;12.73;;;3.33;;
68214;SDS011;55036;52.138;5.236;2023-08-07T08:31:22;10.55;;;2.95;;
68214;SDS011;55036;52.138;5.236;2023-08-07T08:33:50;9.35;;;3.80;;
68214;SDS011;55036;52.138;5.236;2023-08-07T08:36:17;12.30;;;2.72;;
68214;SDS011;55036;52.138;5.236;2023-08-07T08:38:44;9.35;;;2.90;;
68214;SDS011;55036;52.138;5.236;2023-08-07T08:41:12;10.90;;;2.88;;
68214;SDS011;55036;52.138;5.236;2023-08-07T08:43:40;11.70;;;3.15;;
68214;SDS011;55036;52.138;5.236;2023-08-07T08:46:09;12.38;;;3.42;;
68214;SDS011;55036;52.138;5.236;2023-08-07T08:48:38;8.25;;;2.20;;
68214;SDS011;55036;52.138;5.236;2023-08-07T08:51:06;10.77;;;3.03;;
68214;SDS011;55036;52.138;5.236;2023-08-07T08:53:35;10.38;;;2.35;;
68214;SDS011;55036;52.138;5.236;2023-08-07T08:56:02;8.05;;;2.28;;
68214;SDS011;55036;52.138;5.236;2023-08-07T08:58:29;11.95;;;2.70;;
68214;SDS011;55036;52.138;5.236;2023-08-07T09:00:57;12.32;;;2.85;;
68214;SDS011;55036;52.138;5.236;2023-08-07T09:03:24;9.45;;;2.70;;
68214;SDS011;55036;52.138;5.236;2023-08-07T09:05:52;6.65;;;2.63;;
68214;SDS011;55036;52.138;5.236;2023-08-07T09:08:21;10.35;;;2.50;;
68214;SDS011;55036;52.138;5.236;2023-08-07T09:10:49;11.13;;;3.13;;
68214;SDS011;55036;52.138;5.236;2023-08-07T09:13:16;15.07;;;2.95;;
68214;SDS011;55036;52.138;5.236;2023-08-07T09:15:48;11.88;;;2.63;;
68214;SDS011;55036;52.138;5.236;2023-08-07T09:18:19;9.27;;;2.60;;
68214;SDS011;55036;52.138;5.236;2023-08-07T09:20:49;14.75;;;3.45;;
68214;SDS011;55036;52.138;5.236;2023-08-07T09:23:16;13.68;;;2.95;;
68214;SDS011;55036;52.138;5.236;2023-08-07T09:25:43;10.05;;;2.38;;
68214;SDS011;55036;52.138;5.236;2023-08-07T09:28:11;9.10;;;2.60;;
68214;SDS011;55036;52.138;5.236;2023-08-07T09:30:38;8.63;;;2.92;;
68214;SDS011;55036;52.138;5.236;2023-08-07T09:33:08;8.68;;;2.38;;
68214;SDS011;55036;52.138;5.236;2023-08-07T09:35:36;11.18;;;2.42;;
68214;SDS011;55036;52.138;5.236;2023-08-07T09:38:03;9.35;;;2.10;;
68214;SDS011;55036;52.138;5.236;2023-08-07T09:40:30;8.10;;;2.28;;
68214;SDS011;55036;52.138;5.236;2023-08-07T09:43:00;6.55;;;2.30;;
68214;SDS011;55036;52.138;5.236;2023-08-07T09:45:28;5.63;;;2.22;;
68214;SDS011;55036;52.138;5.236;2023-08-07T09:50:28;13.18;;;3.25;;
68214;SDS011;55036;52.138;5.236;2023-08-07T09:52:56;8.95;;;2.30;;
68214;SDS011;55036;52.138;5.236;2023-08-07T09:55:27;10.82;;;2.30;;
68214;SDS011;55036;52.138;5.236;2023-08-07T09:57:54;14.98;;;2.97;;
68214;SDS011;55036;52.138;5.236;2023-08-07T10:00:20;11.25;;;3.15;;
68214;SDS011;55036;52.138;5.236;2023-08-07T10:02:48;8.57;;;2.55;;
68214;SDS011;55036;52.138;5.236;2023-08-07T10:05:16;10.82;;;2.40;;
68214;SDS011;55036;52.138;5.236;2023-08-07T10:07:43;9.90;;;2.45;;
68214;SDS011;55036;52.138;5.236;2023-08-07T10:10:10;6.97;;;1.88;;
68214;SDS011;55036;52.138;5.236;2023-08-07T10:12:37;8.00;;;2.17;;
68214;SDS011;55036;52.138;5.236;2023-08-07T10:15:05;5.15;;;1.98;;
68214;SDS011;55036;52.138;5.236;2023-08-07T10:17:32;6.68;;;2.03;;
68214;SDS011;55036;52.138;5.236;2023-08-07T10:19:59;7.50;;;2.20;;
68214;SDS011;55036;52.138;5.236;2023-08-07T10:22:27;17.15;;;2.72;;
68214;SDS011;55036;52.138;5.236;2023-08-07T10:24:57;9.05;;;3.08;;
68214;SDS011;55036;52.138;5.236;2023-08-07T10:27:27;7.22;;;2.35;;
68214;SDS011;55036;52.138;5.236;2023-08-07T10:30:02;8.15;;;2.53;;
68214;SDS011;55036;52.138;5.236;2023-08-07T10:32:32;8.18;;;2.00;;
68214;SDS011;55036;52.138;5.236;2023-08-07T10:35:03;13.00;;;2.60;;
68214;SDS011;55036;52.138;5.236;2023-08-07T10:37:32;8.15;;;2.30;;
68214;SDS011;55036;52.138;5.236;2023-08-07T10:40:03;6.22;;;1.88;;
68214;SDS011;55036;52.138;5.236;2023-08-07T10:45:17;11.63;;;2.75;;
68214;SDS011;55036;52.138;5.236;2023-08-07T10:47:44;8.23;;;2.60;;
68214;SDS011;55036;52.138;5.236;2023-08-07T10:50:34;10.43;;;2.50;;
68214;SDS011;55036;52.138;5.236;2023-08-07T10:53:18;9.18;;;2.45;;
68214;SDS011;55036;52.138;5.236;2023-08-07T10:55:47;5.25;;;1.63;;
68214;SDS011;55036;52.138;5.236;2023-08-07T10:58:29;7.40;;;2.05;;
68214;SDS011;55036;52.138;5.236;2023-08-07T11:03:56;6.93;;;2.22;;
68214;SDS011;55036;52.138;5.236;2023-08-07T11:06:31;9.85;;;2.15;;
68214;SDS011;55036;52.138;5.236;2023-08-07T11:09:00;12.30;;;2.28;;
68214;SDS011;55036;52.138;5.236;2023-08-07T11:11:29;6.82;;;2.22;;
68214;SDS011;55036;52.138;5.236;2023-08-07T11:14:07;10.43;;;2.25;;
68214;SDS011;55036;52.138;5.236;2023-08-07T11:16:35;7.88;;;2.47;;
68214;SDS011;55036;52.138;5.236;2023-08-07T11:19:02;5.57;;;2.35;;
68214;SDS011;55036;52.138;5.236;2023-08-07T11:21:33;10.93;;;2.78;;
68214;SDS011;55036;52.138;5.236;2023-08-07T11:24:00;10.18;;;2.70;;
68214;SDS011;55036;52.138;5.236;2023-08-07T11:26:27;7.93;;;3.00;;
68214;SDS011;55036;52.138;5.236;2023-08-07T11:28:55;7.20;;;2.00;;
68214;SDS011;55036;52.138;5.236;2023-08-07T11:31:22;6.97;;;2.38;;
68214;SDS011;55036;52.138;5.236;2023-08-07T11:33:59;8.98;;;2.75;;
68214;SDS011;55036;52.138;5.236;2023-08-07T11:36:29;13.68;;;2.60;;
68214;SDS011;55036;52.138;5.236;2023-08-07T11:38:55;7.78;;;2.28;;
68214;SDS011;55036;52.138;5.236;2023-08-07T11:41:22;9.45;;;2.40;;
68214;SDS011;55036;52.138;5.236;2023-08-07T11:43:49;9.10;;;2.50;;
68214;SDS011;55036;52.138;5.236;2023-08-07T11:46:16;8.32;;;2.67;;
68214;SDS011;55036;52.138;5.236;2023-08-07T11:48:43;10.35;;;2.90;;
68214;SDS011;55036;52.138;5.236;2023-08-07T11:51:11;6.70;;;2.50;;
68214;SDS011;55036;52.138;5.236;2023-08-07T11:53:39;7.50;;;2.22;;
68214;SDS011;55036;52.138;5.236;2023-08-07T11:56:07;8.57;;;2.55;;
68214;SDS011;55036;52.138;5.236;2023-08-07T11:58:43;7.07;;;2.25;;
68214;SDS011;55036;52.138;5.236;2023-08-07T12:01:16;10.18;;;3.15;;
68214;SDS011;55036;52.138;5.236;2023-08-07T12:03:51;9.27;;;2.28;;
68214;SDS011;55036;52.138;5.236;2023-08-07T12:06:24;6.50;;;2.22;;
68214;SDS011;55036;52.138;5.236;2023-08-07T12:08:53;5.82;;;2.20;;
68214;SDS011;55036;52.138;5.236;2023-08-07T12:11:22;10.52;;;2.17;;
68214;SDS011;55036;52.138;5.236;2023-08-07T12:13:49;8.63;;;2.47;;
68214;SDS011;55036;52.138;5.236;2023-08-07T12:16:17;7.80;;;2.20;;
68214;SDS011;55036;52.138;5.236;2023-08-07T12:18:45;6.45;;;1.92;;
68214;SDS011;55036;52.138;5.236;2023-08-07T12:21:14;6.50;;;1.60;;
68214;SDS011;55036;52.138;5.236;2023-08-07T12:23:46;6.60;;;1.80;;
68214;SDS011;55036;52.138;5.236;2023-08-07T12:26:16;5.90;;;1.75;;
68214;SDS011;55036;52.138;5.236;2023-08-07T12:28:44;6.85;;;1.98;;
68214;SDS011;55036;52.138;5.236;2023-08-07T12:31:11;9.90;;;3.10;;
68214;SDS011;55036;52.138;5.236;2023-08-07T12:33:37;6.60;;;2.08;;
68214;SDS011;55036;52.138;5.236;2023-08-07T12:36:04;8.35;;;2.20;;
68214;SDS011;55036;52.138;5.236;2023-08-07T12:38:46;7.07;;;1.98;;
68214;SDS011;55036;52.138;5.236;2023-08-07T12:41:13;7.57;;;1.88;;
68214;SDS011;55036;52.138;5.236;2023-08-07T12:43:43;5.75;;;1.70;;
68214;SDS011;55036;52.138;5.236;2023-08-07T12:46:10;5.28;;;1.73;;
68214;SDS011;55036;52.138;5.236;2023-08-07T12:48:40;3.53;;;1.38;;
68214;SDS011;55036;52.138;5.236;2023-08-07T12:51:06;7.10;;;1.90;;
68214;SDS011;55036;52.138;5.236;2023-08-07T12:53:34;5.57;;;2.10;;
68214;SDS011;55036;52.138;5.236;2023-08-07T12:56:01;4.60;;;1.70;;
68214;SDS011;55036;52.138;5.236;2023-08-07T12:58:29;6.03;;;1.45;;
68214;SDS011;55036;52.138;5.236;2023-08-07T13:00:56;8.07;;;1.90;;
68214;SDS011;55036;52.138;5.236;2023-08-07T13:03:23;3.83;;;1.52;;
68214;SDS011;55036;52.138;5.236;2023-08-07T13:05:49;5.35;;;1.75;;
68214;SDS011;55036;52.138;5.236;2023-08-07T13:08:16;7.80;;;1.70;;
68214;SDS011;55036;52.138;5.236;2023-08-07T13:10:43;6.05;;;1.80;;
68214;SDS011;55036;52.138;5.236;2023-08-07T13:13:12;4.65;;;1.75;;
68214;SDS011;55036;52.138;5.236;2023-08-07T13:15:39;5.38;;;1.67;;
68214;SDS011;55036;52.138;5.236;2023-08-07T13:18:05;3.58;;;1.55;;
68214;SDS011;55036;52.138;5.236;2023-08-07T13:20:32;4.82;;;1.40;;
68214;SDS011;55036;52.138;5.236;2023-08-07T13:23:00;4.60;;;2.03;;
68214;SDS011;55036;52.138;5.236;2023-08-07T13:25:28;4.50;;;1.67;;
68214;SDS011;55036;52.138;5.236;2023-08-07T13:27:55;5.07;;;1.40;;
68214;SDS011;55036;52.138;5.236;2023-08-07T13:30:21;4.10;;;1.40;;
68214;SDS011;55036;52.138;5.236;2023-08-07T13:32:48;7.07;;;1.55;;
68214;SDS011;55036;52.138;5.236;2023-08-07T13:35:15;3.35;;;1.52;;
68214;SDS011;55036;52.138;5.236;2023-08-07T13:37:42;4.50;;;1.15;;
68214;SDS011;55036;52.138;5.236;2023-08-07T13:40:09;4.25;;;1.63;;
68214;SDS011;55036;52.138;5.236;2023-08-07T13:42:38;5.65;;;1.40;;
68214;SDS011;55036;52.138;5.236;2023-08-07T13:45:05;6.57;;;2.10;;
68214;SDS011;55036;52.138;5.236;2023-08-07T13:47:33;3.55;;;1.48;;
68214;SDS011;55036;52.138;5.236;2023-08-07T13:50:00;3.50;;;1.30;;
68214;SDS011;55036;52.138;5.236;2023-08-07T13:52:28;7.50;;;1.50;;
68214;SDS011;55036;52.138;5.236;2023-08-07T13:54:57;8.93;;;1.88;;
68214;SDS011;55036;52.138;5.236;2023-08-07T13:57:23;4.93;;;1.40;;
68214;SDS011;55036;52.138;5.236;2023-08-07T13:59:50;5.22;;;1.30;;
68214;SDS011;55036;52.138;5.236;2023-08-07T14:02:17;4.60;;;1.73;;
68214;SDS011;55036;52.138;5.236;2023-08-07T14:04:44;2.30;;;1.20;;
68214;SDS011;55036;52.138;5.236;2023-08-07T14:07:11;8.02;;;1.60;;
68214;SDS011;55036;52.138;5.236;2023-08-07T14:09:38;3.83;;;1.30;;
68214;SDS011;55036;52.138;5.236;2023-08-07T14:12:05;3.10;;;1.30;;
68214;SDS011;55036;52.138;5.236;2023-08-07T14:14:33;3.30;;;1.60;;
68214;SDS011;55036;52.138;5.236;2023-08-07T14:16:59;3.75;;;1.63;;
68214;SDS011;55036;52.138;5.236;2023-08-07T14:19:28;5.68;;;1.60;;
68214;SDS011;55036;52.138;5.236;2023-08-07T14:21:54;7.25;;;1.77;;
68214;SDS011;55036;52.138;5.236;2023-08-07T14:24:21;5.43;;;1.55;;
68214;SDS011;55036;52.138;5.236;2023-08-07T14:26:48;3.63;;;1.60;;
68214;SDS011;55036;52.138;5.236;2023-08-07T14:29:15;5.25;;;2.03;;
68214;SDS011;55036;52.138;5.236;2023-08-07T14:31:42;8.07;;;1.70;;
68214;SDS011;55036;52.138;5.236;2023-08-07T14:34:08;4.72;;;2.30;;
68214;SDS011;55036;52.138;5.236;2023-08-07T14:36:35;4.60;;;1.88;;
68214;SDS011;55036;52.138;5.236;2023-08-07T14:39:03;6.70;;;1.98;;
68214;SDS011;55036;52.138;5.236;2023-08-07T14:41:29;5.47;;;1.58;;
68214;SDS011;55036;52.138;5.236;2023-08-07T14:43:56;2.10;;;1.38;;
68214;SDS011;55036;52.138;5.236;2023-08-07T14:46:23;4.15;;;1.73;;
68214;SDS011;55036;52.138;5.236;2023-08-07T14:48:50;6.03;;;1.90;;
68214;SDS011;55036;52.138;5.236;2023-08-07T14:51:17;3.72;;;1.55;;
68214;SDS011;55036;52.138;5.236;2023-08-07T14:53:44;3.83;;;2.00;;
68214;SDS011;55036;52.138;5.236;2023-08-07T14:56:11;6.53;;;2.10;;
68214;SDS011;55036;52.138;5.236;2023-08-07T14:58:38;7.38;;;1.98;;
68214;SDS011;55036;52.138;5.236;2023-08-07T15:01:04;4.72;;;1.73;;
68214;SDS011;55036;52.138;5.236;2023-08-07T15:03:31;7.28;;;2.08;;
68214;SDS011;55036;52.138;5.236;2023-08-07T15:05:58;4.10;;;1.80;;
68214;SDS011;55036;52.138;5.236;2023-08-07T15:08:25;4.22;;;1.80;;
68214;SDS011;55036;52.138;5.236;2023-08-07T15:10:52;3.38;;;1.85;;
68214;SDS011;55036;52.138;5.236;2023-08-07T15:13:21;6.93;;;2.33;;
68214;SDS011;55036;52.138;5.236;2023-08-07T15:15:48;3.03;;;1.90;;
68214;SDS011;55036;52.138;5.236;2023-08-07T15:18:15;8.63;;;1.98;;
68214;SDS011;55036;52.138;5.236;2023-08-07T15:20:42;3.90;;;1.95;;
68214;SDS011;55036;52.138;5.236;2023-08-07T15:23:08;5.65;;;2.17;;
68214;SDS011;55036;52.138;5.236;2023-08-07T15:25:36;8.88;;;2.22;;
68214;SDS011;55036;52.138;5.236;2023-08-07T15:28:05;4.35;;;1.70;;
68214;SDS011;55036;52.138;5.236;2023-08-07T15:30:32;4.47;;;1.80;;
68214;SDS011;55036;52.138;5.236;2023-08-07T15:32:59;3.72;;;1.90;;